Albany, New York
Traffic Map
Current Weather Conditions
Albany, New York
Few Clouds
Few Clouds

Feels Like: 8°
Wind Chill: Ceiling: Unl
Heat Index: Visibility: 10mi
Dew Point: Wind: 0mph
Humidity: 56% Direction: ° ()
Pressure: 30.34in Gusts: 0mph
Raw Report DataKALB 171451Z 00000KT 10SM FEW250 08/00 A3034 RMK AO2 SLP274 T00830000 58002
Traffic Incident Summary
Active as of:
Severity:
Category:
InformationThere was an issue retrieving the traffic information for this location. Please try a different location or try again shortly.
Advertisements